sensor_id;sensor_type;location;lat;lon;timestamp;P1;durP1;ratioP1;P2;durP2;ratioP2
63342;SDS011;49465;57.664;39.686;2022-11-09T00:00:16;13.32;;;8.82;;
63342;SDS011;49465;57.664;39.686;2022-11-09T00:02:45;11.70;;;8.95;;
63342;SDS011;49465;57.664;39.686;2022-11-09T00:05:14;14.13;;;8.95;;
63342;SDS011;49465;57.664;39.686;2022-11-09T00:07:41;12.57;;;8.77;;
63342;SDS011;49465;57.664;39.686;2022-11-09T00:10:07;14.60;;;8.88;;
63342;SDS011;49465;57.664;39.686;2022-11-09T00:12:34;11.20;;;8.45;;
63342;SDS011;49465;57.664;39.686;2022-11-09T00:15:00;13.43;;;8.15;;
63342;SDS011;49465;57.664;39.686;2022-11-09T00:17:29;13.13;;;8.73;;
63342;SDS011;49465;57.664;39.686;2022-11-09T00:19:56;12.30;;;9.20;;
63342;SDS011;49465;57.664;39.686;2022-11-09T00:22:25;12.38;;;8.40;;
63342;SDS011;49465;57.664;39.686;2022-11-09T00:24:52;14.32;;;8.77;;
63342;SDS011;49465;57.664;39.686;2022-11-09T00:27:18;12.57;;;8.50;;
63342;SDS011;49465;57.664;39.686;2022-11-09T00:29:44;13.43;;;8.88;;
63342;SDS011;49465;57.664;39.686;2022-11-09T00:32:14;13.65;;;8.60;;
63342;SDS011;49465;57.664;39.686;2022-11-09T00:34:42;11.73;;;8.27;;
63342;SDS011;49465;57.664;39.686;2022-11-09T00:37:09;12.63;;;8.32;;
63342;SDS011;49465;57.664;39.686;2022-11-09T00:39:35;13.75;;;7.80;;
63342;SDS011;49465;57.664;39.686;2022-11-09T00:42:04;11.48;;;7.82;;
63342;SDS011;49465;57.664;39.686;2022-11-09T00:44:31;11.05;;;8.30;;
63342;SDS011;49465;57.664;39.686;2022-11-09T00:46:57;11.52;;;8.25;;
63342;SDS011;49465;57.664;39.686;2022-11-09T00:49:24;11.48;;;7.35;;
63342;SDS011;49465;57.664;39.686;2022-11-09T00:51:50;10.00;;;7.20;;
63342;SDS011;49465;57.664;39.686;2022-11-09T00:54:16;11.88;;;7.72;;
63342;SDS011;49465;57.664;39.686;2022-11-09T00:56:51;11.32;;;8.10;;
63342;SDS011;49465;57.664;39.686;2022-11-09T00:59:17;10.32;;;7.28;;
63342;SDS011;49465;57.664;39.686;2022-11-09T01:01:43;10.32;;;7.32;;
63342;SDS011;49465;57.664;39.686;2022-11-09T01:04:10;11.30;;;6.97;;
63342;SDS011;49465;57.664;39.686;2022-11-09T01:06:36;9.98;;;6.97;;
63342;SDS011;49465;57.664;39.686;2022-11-09T01:09:02;9.38;;;6.82;;
63342;SDS011;49465;57.664;39.686;2022-11-09T01:11:29;8.88;;;6.57;;
63342;SDS011;49465;57.664;39.686;2022-11-09T01:13:57;7.65;;;6.35;;
63342;SDS011;49465;57.664;39.686;2022-11-09T01:16:25;8.55;;;5.95;;
63342;SDS011;49465;57.664;39.686;2022-11-09T01:18:54;11.10;;;7.10;;
63342;SDS011;49465;57.664;39.686;2022-11-09T01:21:24;7.85;;;6.30;;
63342;SDS011;49465;57.664;39.686;2022-11-09T01:23:54;9.13;;;6.45;;
63342;SDS011;49465;57.664;39.686;2022-11-09T01:26:22;8.57;;;6.40;;
63342;SDS011;49465;57.664;39.686;2022-11-09T01:28:49;8.90;;;6.25;;
63342;SDS011;49465;57.664;39.686;2022-11-09T01:31:18;6.97;;;6.20;;
63342;SDS011;49465;57.664;39.686;2022-11-09T01:33:51;7.60;;;6.22;;
63342;SDS011;49465;57.664;39.686;2022-11-09T01:36:19;9.18;;;6.75;;
63342;SDS011;49465;57.664;39.686;2022-11-09T01:38:47;8.88;;;6.40;;
63342;SDS011;49465;57.664;39.686;2022-11-09T01:41:15;7.47;;;5.65;;
63342;SDS011;49465;57.664;39.686;2022-11-09T01:44:00;7.60;;;6.30;;
63342;SDS011;49465;57.664;39.686;2022-11-09T01:46:38;7.90;;;6.07;;
63342;SDS011;49465;57.664;39.686;2022-11-09T01:49:18;9.30;;;6.10;;
63342;SDS011;49465;57.664;39.686;2022-11-09T01:51:50;8.98;;;5.88;;
63342;SDS011;49465;57.664;39.686;2022-11-09T01:54:33;7.97;;;5.93;;
63342;SDS011;49465;57.664;39.686;2022-11-09T01:59:50;7.68;;;5.40;;
63342;SDS011;49465;57.664;39.686;2022-11-09T02:02:21;7.95;;;6.20;;
63342;SDS011;49465;57.664;39.686;2022-11-09T02:04:54;8.73;;;6.35;;
63342;SDS011;49465;57.664;39.686;2022-11-09T02:07:27;9.40;;;5.82;;
63342;SDS011;49465;57.664;39.686;2022-11-09T02:09:58;7.47;;;5.80;;
63342;SDS011;49465;57.664;39.686;2022-11-09T02:12:45;6.63;;;5.78;;
63342;SDS011;49465;57.664;39.686;2022-11-09T02:15:14;8.88;;;5.90;;
63342;SDS011;49465;57.664;39.686;2022-11-09T02:17:43;8.85;;;6.05;;
63342;SDS011;49465;57.664;39.686;2022-11-09T02:20:13;8.30;;;5.80;;
63342;SDS011;49465;57.664;39.686;2022-11-09T02:22:49;7.65;;;6.50;;
63342;SDS011;49465;57.664;39.686;2022-11-09T02:25:18;7.53;;;5.80;;
63342;SDS011;49465;57.664;39.686;2022-11-09T02:27:50;8.80;;;6.07;;
63342;SDS011;49465;57.664;39.686;2022-11-09T02:30:16;7.63;;;5.70;;
63342;SDS011;49465;57.664;39.686;2022-11-09T02:32:45;7.05;;;5.93;;
63342;SDS011;49465;57.664;39.686;2022-11-09T02:35:11;8.90;;;6.03;;
63342;SDS011;49465;57.664;39.686;2022-11-09T02:37:46;7.57;;;5.90;;
63342;SDS011;49465;57.664;39.686;2022-11-09T02:40:15;7.30;;;5.60;;
63342;SDS011;49465;57.664;39.686;2022-11-09T02:42:56;6.20;;;5.28;;
63342;SDS011;49465;57.664;39.686;2022-11-09T02:45:24;8.32;;;5.85;;
63342;SDS011;49465;57.664;39.686;2022-11-09T02:47:51;7.50;;;5.75;;
63342;SDS011;49465;57.664;39.686;2022-11-09T02:50:20;6.63;;;5.43;;
63342;SDS011;49465;57.664;39.686;2022-11-09T02:52:48;8.57;;;6.00;;
63342;SDS011;49465;57.664;39.686;2022-11-09T02:55:21;7.82;;;5.78;;
63342;SDS011;49465;57.664;39.686;2022-11-09T02:57:50;7.18;;;5.82;;
63342;SDS011;49465;57.664;39.686;2022-11-09T03:00:19;7.05;;;5.43;;
63342;SDS011;49465;57.664;39.686;2022-11-09T03:02:45;7.25;;;5.70;;
63342;SDS011;49465;57.664;39.686;2022-11-09T03:05:15;8.82;;;6.32;;
63342;SDS011;49465;57.664;39.686;2022-11-09T03:07:41;7.03;;;5.53;;
63342;SDS011;49465;57.664;39.686;2022-11-09T03:10:08;7.93;;;5.70;;
63342;SDS011;49465;57.664;39.686;2022-11-09T03:12:37;8.38;;;5.63;;
63342;SDS011;49465;57.664;39.686;2022-11-09T03:15:05;7.00;;;5.75;;
63342;SDS011;49465;57.664;39.686;2022-11-09T03:17:33;7.38;;;5.60;;
63342;SDS011;49465;57.664;39.686;2022-11-09T03:20:03;6.10;;;5.47;;
63342;SDS011;49465;57.664;39.686;2022-11-09T03:22:33;8.13;;;5.90;;
63342;SDS011;49465;57.664;39.686;2022-11-09T03:24:59;7.10;;;6.00;;
63342;SDS011;49465;57.664;39.686;2022-11-09T03:27:26;6.60;;;5.30;;
63342;SDS011;49465;57.664;39.686;2022-11-09T03:29:52;8.70;;;5.47;;
63342;SDS011;49465;57.664;39.686;2022-11-09T03:32:21;6.28;;;5.10;;
63342;SDS011;49465;57.664;39.686;2022-11-09T03:34:47;7.22;;;5.40;;
63342;SDS011;49465;57.664;39.686;2022-11-09T03:37:18;6.30;;;5.25;;
63342;SDS011;49465;57.664;39.686;2022-11-09T03:39:46;6.03;;;4.88;;
63342;SDS011;49465;57.664;39.686;2022-11-09T03:42:12;9.68;;;5.65;;
63342;SDS011;49465;57.664;39.686;2022-11-09T03:44:41;6.78;;;5.40;;
63342;SDS011;49465;57.664;39.686;2022-11-09T03:47:08;5.57;;;4.93;;
63342;SDS011;49465;57.664;39.686;2022-11-09T03:49:34;7.22;;;5.07;;
63342;SDS011;49465;57.664;39.686;2022-11-09T03:52:00;7.57;;;5.03;;
63342;SDS011;49465;57.664;39.686;2022-11-09T03:54:32;7.47;;;5.13;;
63342;SDS011;49465;57.664;39.686;2022-11-09T03:57:04;6.72;;;5.30;;
63342;SDS011;49465;57.664;39.686;2022-11-09T03:59:34;7.05;;;5.75;;
63342;SDS011;49465;57.664;39.686;2022-11-09T04:02:00;7.90;;;5.15;;
63342;SDS011;49465;57.664;39.686;2022-11-09T04:04:27;7.72;;;5.22;;
63342;SDS011;49465;57.664;39.686;2022-11-09T04:06:53;6.35;;;5.05;;
63342;SDS011;49465;57.664;39.686;2022-11-09T04:09:25;6.03;;;5.00;;
63342;SDS011;49465;57.664;39.686;2022-11-09T04:11:54;6.20;;;5.05;;
63342;SDS011;49465;57.664;39.686;2022-11-09T04:14:20;6.78;;;4.95;;
63342;SDS011;49465;57.664;39.686;2022-11-09T04:16:47;6.97;;;5.20;;
63342;SDS011;49465;57.664;39.686;2022-11-09T04:19:19;6.28;;;5.40;;
63342;SDS011;49465;57.664;39.686;2022-11-09T04:21:50;7.70;;;4.93;;
63342;SDS011;49465;57.664;39.686;2022-11-09T04:24:17;6.28;;;5.03;;
63342;SDS011;49465;57.664;39.686;2022-11-09T04:26:44;6.85;;;5.03;;
63342;SDS011;49465;57.664;39.686;2022-11-09T04:29:17;8.27;;;5.28;;
63342;SDS011;49465;57.664;39.686;2022-11-09T04:31:44;7.85;;;5.30;;
63342;SDS011;49465;57.664;39.686;2022-11-09T04:34:18;7.97;;;5.05;;
63342;SDS011;49465;57.664;39.686;2022-11-09T04:36:45;6.47;;;5.00;;
63342;SDS011;49465;57.664;39.686;2022-11-09T04:39:19;8.00;;;5.60;;
63342;SDS011;49465;57.664;39.686;2022-11-09T04:41:46;6.43;;;5.05;;
63342;SDS011;49465;57.664;39.686;2022-11-09T04:44:12;6.32;;;5.18;;
63342;SDS011;49465;57.664;39.686;2022-11-09T04:46:41;7.88;;;5.43;;
63342;SDS011;49465;57.664;39.686;2022-11-09T04:49:12;5.53;;;4.53;;
63342;SDS011;49465;57.664;39.686;2022-11-09T04:51:44;7.05;;;4.65;;
63342;SDS011;49465;57.664;39.686;2022-11-09T04:54:10;7.75;;;5.03;;
63342;SDS011;49465;57.664;39.686;2022-11-09T04:56:40;6.82;;;4.70;;
63342;SDS011;49465;57.664;39.686;2022-11-09T04:59:09;6.10;;;4.82;;
63342;SDS011;49465;57.664;39.686;2022-11-09T05:01:38;7.00;;;4.82;;
63342;SDS011;49465;57.664;39.686;2022-11-09T05:04:10;5.40;;;4.78;;
63342;SDS011;49465;57.664;39.686;2022-11-09T05:06:42;5.50;;;4.75;;
63342;SDS011;49465;57.664;39.686;2022-11-09T05:09:08;6.13;;;4.70;;
63342;SDS011;49465;57.664;39.686;2022-11-09T05:11:37;5.80;;;4.55;;
63342;SDS011;49465;57.664;39.686;2022-11-09T05:14:11;4.80;;;4.18;;
63342;SDS011;49465;57.664;39.686;2022-11-09T05:16:41;5.15;;;4.28;;
63342;SDS011;49465;57.664;39.686;2022-11-09T05:19:13;6.25;;;4.82;;
63342;SDS011;49465;57.664;39.686;2022-11-09T05:21:48;6.78;;;4.65;;
63342;SDS011;49465;57.664;39.686;2022-11-09T05:24:17;5.43;;;4.72;;
63342;SDS011;49465;57.664;39.686;2022-11-09T05:26:49;7.63;;;4.63;;
63342;SDS011;49465;57.664;39.686;2022-11-09T05:29:21;7.55;;;5.00;;
63342;SDS011;49465;57.664;39.686;2022-11-09T05:31:47;9.05;;;6.43;;
63342;SDS011;49465;57.664;39.686;2022-11-09T05:34:20;7.65;;;6.07;;
63342;SDS011;49465;57.664;39.686;2022-11-09T05:36:49;9.15;;;5.82;;
63342;SDS011;49465;57.664;39.686;2022-11-09T05:39:29;7.28;;;5.28;;
63342;SDS011;49465;57.664;39.686;2022-11-09T05:41:58;6.35;;;5.10;;
63342;SDS011;49465;57.664;39.686;2022-11-09T05:44:26;6.55;;;5.03;;
63342;SDS011;49465;57.664;39.686;2022-11-09T05:46:58;6.30;;;4.85;;
63342;SDS011;49465;57.664;39.686;2022-11-09T05:49:27;7.38;;;5.40;;
63342;SDS011;49465;57.664;39.686;2022-11-09T05:51:55;7.90;;;5.40;;
63342;SDS011;49465;57.664;39.686;2022-11-09T05:54:27;6.22;;;4.78;;
63342;SDS011;49465;57.664;39.686;2022-11-09T05:56:59;7.00;;;4.50;;
63342;SDS011;49465;57.664;39.686;2022-11-09T05:59:28;7.43;;;5.15;;
63342;SDS011;49465;57.664;39.686;2022-11-09T06:02:00;5.70;;;5.00;;
63342;SDS011;49465;57.664;39.686;2022-11-09T06:04:29;8.43;;;5.10;;
63342;SDS011;49465;57.664;39.686;2022-11-09T06:06:57;7.35;;;4.82;;
63342;SDS011;49465;57.664;39.686;2022-11-09T06:09:29;5.93;;;4.88;;
63342;SDS011;49465;57.664;39.686;2022-11-09T06:11:55;7.38;;;4.90;;
63342;SDS011;49465;57.664;39.686;2022-11-09T06:14:25;7.82;;;5.03;;
63342;SDS011;49465;57.664;39.686;2022-11-09T06:16:51;5.30;;;4.50;;
63342;SDS011;49465;57.664;39.686;2022-11-09T06:19:17;5.57;;;4.80;;
63342;SDS011;49465;57.664;39.686;2022-11-09T06:21:44;7.60;;;4.60;;
63342;SDS011;49465;57.664;39.686;2022-11-09T06:24:13;6.47;;;4.57;;
63342;SDS011;49465;57.664;39.686;2022-11-09T06:26:42;5.05;;;4.18;;
63342;SDS011;49465;57.664;39.686;2022-11-09T06:29:11;6.32;;;4.35;;
63342;SDS011;49465;57.664;39.686;2022-11-09T06:31:37;5.22;;;4.18;;
63342;SDS011;49465;57.664;39.686;2022-11-09T06:34:03;5.43;;;4.13;;
63342;SDS011;49465;57.664;39.686;2022-11-09T06:36:30;6.10;;;4.38;;
63342;SDS011;49465;57.664;39.686;2022-11-09T06:38:59;5.13;;;4.18;;
63342;SDS011;49465;57.664;39.686;2022-11-09T06:41:25;5.57;;;4.22;;
63342;SDS011;49465;57.664;39.686;2022-11-09T06:43:57;5.88;;;4.22;;
63342;SDS011;49465;57.664;39.686;2022-11-09T06:46:32;5.65;;;3.83;;
63342;SDS011;49465;57.664;39.686;2022-11-09T06:48:59;4.60;;;3.80;;
63342;SDS011;49465;57.664;39.686;2022-11-09T06:51:28;5.03;;;3.95;;
63342;SDS011;49465;57.664;39.686;2022-11-09T06:54:03;5.25;;;4.15;;
63342;SDS011;49465;57.664;39.686;2022-11-09T06:56:33;6.18;;;3.85;;
63342;SDS011;49465;57.664;39.686;2022-11-09T06:59:05;4.82;;;3.65;;
63342;SDS011;49465;57.664;39.686;2022-11-09T07:01:41;4.65;;;3.58;;
63342;SDS011;49465;57.664;39.686;2022-11-09T07:04:13;4.50;;;3.70;;
63342;SDS011;49465;57.664;39.686;2022-11-09T07:06:43;5.65;;;4.00;;
63342;SDS011;49465;57.664;39.686;2022-11-09T07:09:12;4.80;;;3.42;;
63342;SDS011;49465;57.664;39.686;2022-11-09T07:11:45;5.35;;;3.55;;
63342;SDS011;49465;57.664;39.686;2022-11-09T07:14:16;4.60;;;3.63;;
63342;SDS011;49465;57.664;39.686;2022-11-09T07:16:46;4.97;;;3.47;;
63342;SDS011;49465;57.664;39.686;2022-11-09T07:19:14;4.20;;;3.47;;
63342;SDS011;49465;57.664;39.686;2022-11-09T07:21:41;4.50;;;3.63;;
63342;SDS011;49465;57.664;39.686;2022-11-09T07:24:07;4.05;;;3.25;;
63342;SDS011;49465;57.664;39.686;2022-11-09T07:26:37;3.95;;;3.25;;
63342;SDS011;49465;57.664;39.686;2022-11-09T07:29:06;4.28;;;3.47;;
63342;SDS011;49465;57.664;39.686;2022-11-09T07:31:38;5.18;;;3.28;;
63342;SDS011;49465;57.664;39.686;2022-11-09T07:34:07;4.75;;;3.25;;
63342;SDS011;49465;57.664;39.686;2022-11-09T07:36:36;16.92;;;12.57;;
63342;SDS011;49465;57.664;39.686;2022-11-09T07:39:05;74.30;;;49.92;;
63342;SDS011;49465;57.664;39.686;2022-11-09T07:41:35;79.30;;;52.75;;
63342;SDS011;49465;57.664;39.686;2022-11-09T07:44:01;42.28;;;29.27;;
63342;SDS011;49465;57.664;39.686;2022-11-09T07:46:36;51.08;;;35.40;;
63342;SDS011;49465;57.664;39.686;2022-11-09T07:49:08;42.65;;;30.10;;
63342;SDS011;49465;57.664;39.686;2022-11-09T07:51:34;28.63;;;19.65;;
63342;SDS011;49465;57.664;39.686;2022-11-09T07:54:04;30.25;;;20.27;;
63342;SDS011;49465;57.664;39.686;2022-11-09T07:56:30;16.23;;;11.60;;
63342;SDS011;49465;57.664;39.686;2022-11-09T07:59:00;21.77;;;14.32;;
63342;SDS011;49465;57.664;39.686;2022-11-09T08:01:26;19.98;;;14.57;;
63342;SDS011;49465;57.664;39.686;2022-11-09T08:03:56;12.48;;;8.68;;
63342;SDS011;49465;57.664;39.686;2022-11-09T08:06:25;11.60;;;8.75;;
63342;SDS011;49465;57.664;39.686;2022-11-09T08:08:57;11.88;;;8.77;;
63342;SDS011;49465;57.664;39.686;2022-11-09T08:11:29;9.55;;;6.03;;
63342;SDS011;49465;57.664;39.686;2022-11-09T08:13:55;6.93;;;5.60;;
63342;SDS011;49465;57.664;39.686;2022-11-09T08:16:27;7.53;;;4.97;;
63342;SDS011;49465;57.664;39.686;2022-11-09T08:18:53;6.53;;;4.70;;
63342;SDS011;49465;57.664;39.686;2022-11-09T08:21:20;7.50;;;4.85;;
63342;SDS011;49465;57.664;39.686;2022-11-09T08:23:48;4.85;;;3.80;;
63342;SDS011;49465;57.664;39.686;2022-11-09T08:26:18;7.93;;;5.32;;
63342;SDS011;49465;57.664;39.686;2022-11-09T08:28:52;7.43;;;5.65;;
63342;SDS011;49465;57.664;39.686;2022-11-09T08:31:21;7.03;;;4.63;;
63342;SDS011;49465;57.664;39.686;2022-11-09T08:33:51;6.28;;;3.95;;
63342;SDS011;49465;57.664;39.686;2022-11-09T08:36:25;6.80;;;4.80;;
63342;SDS011;49465;57.664;39.686;2022-11-09T08:38:53;5.97;;;3.78;;
63342;SDS011;49465;57.664;39.686;2022-11-09T08:41:28;4.93;;;3.72;;
63342;SDS011;49465;57.664;39.686;2022-11-09T08:43:58;4.50;;;3.35;;
63342;SDS011;49465;57.664;39.686;2022-11-09T08:46:27;4.95;;;3.75;;
63342;SDS011;49465;57.664;39.686;2022-11-09T08:48:59;5.28;;;3.65;;
63342;SDS011;49465;57.664;39.686;2022-11-09T08:51:26;3.88;;;3.00;;
63342;SDS011;49465;57.664;39.686;2022-11-09T08:53:58;5.47;;;3.50;;
63342;SDS011;49465;57.664;39.686;2022-11-09T08:56:30;4.78;;;3.30;;
63342;SDS011;49465;57.664;39.686;2022-11-09T08:59:11;5.93;;;3.80;;
63342;SDS011;49465;57.664;39.686;2022-11-09T09:01:45;4.57;;;3.38;;
63342;SDS011;49465;57.664;39.686;2022-11-09T09:04:16;3.13;;;2.80;;
63342;SDS011;49465;57.664;39.686;2022-11-09T09:06:51;5.55;;;3.10;;
63342;SDS011;49465;57.664;39.686;2022-11-09T09:09:20;4.97;;;2.72;;
63342;SDS011;49465;57.664;39.686;2022-11-09T09:11:53;3.60;;;2.70;;
63342;SDS011;49465;57.664;39.686;2022-11-09T09:14:26;3.60;;;2.72;;
63342;SDS011;49465;57.664;39.686;2022-11-09T09:16:59;3.00;;;2.50;;
63342;SDS011;49465;57.664;39.686;2022-11-09T09:19:26;4.78;;;2.50;;
63342;SDS011;49465;57.664;39.686;2022-11-09T09:21:56;3.70;;;2.78;;
63342;SDS011;49465;57.664;39.686;2022-11-09T09:24:31;4.70;;;2.83;;
63342;SDS011;49465;57.664;39.686;2022-11-09T09:27:06;3.42;;;2.80;;
63342;SDS011;49465;57.664;39.686;2022-11-09T09:29:36;3.50;;;2.80;;
63342;SDS011;49465;57.664;39.686;2022-11-09T09:32:05;2.95;;;2.60;;
63342;SDS011;49465;57.664;39.686;2022-11-09T09:34:33;3.25;;;2.58;;
63342;SDS011;49465;57.664;39.686;2022-11-09T09:36:59;3.67;;;2.60;;
63342;SDS011;49465;57.664;39.686;2022-11-09T09:39:26;3.40;;;2.67;;
63342;SDS011;49465;57.664;39.686;2022-11-09T09:42:03;3.60;;;2.45;;
63342;SDS011;49465;57.664;39.686;2022-11-09T09:44:57;3.47;;;2.50;;
63342;SDS011;49465;57.664;39.686;2022-11-09T09:47:39;4.18;;;2.65;;
63342;SDS011;49465;57.664;39.686;2022-11-09T09:50:11;2.83;;;2.50;;
63342;SDS011;49465;57.664;39.686;2022-11-09T09:55:43;3.53;;;2.72;;
63342;SDS011;49465;57.664;39.686;2022-11-09T09:58:23;3.00;;;2.38;;
63342;SDS011;49465;57.664;39.686;2022-11-09T10:01:15;4.20;;;2.67;;
63342;SDS011;49465;57.664;39.686;2022-11-09T10:03:48;3.47;;;2.80;;
63342;SDS011;49465;57.664;39.686;2022-11-09T10:06:24;2.97;;;2.38;;
63342;SDS011;49465;57.664;39.686;2022-11-09T10:12:09;3.90;;;2.90;;
63342;SDS011;49465;57.664;39.686;2022-11-09T10:29:21;3.15;;;2.72;;
63342;SDS011;49465;57.664;39.686;2022-11-09T10:32:18;3.75;;;2.92;;
63342;SDS011;49465;57.664;39.686;2022-11-09T10:37:50;2.78;;;2.40;;
63342;SDS011;49465;57.664;39.686;2022-11-09T10:43:22;3.95;;;2.70;;
63342;SDS011;49465;57.664;39.686;2022-11-09T10:45:56;3.13;;;2.50;;
63342;SDS011;49465;57.664;39.686;2022-11-09T10:48:32;3.05;;;2.40;;
63342;SDS011;49465;57.664;39.686;2022-11-09T10:51:08;5.10;;;2.45;;
63342;SDS011;49465;57.664;39.686;2022-11-09T10:57:09;4.00;;;2.72;;
63342;SDS011;49465;57.664;39.686;2022-11-09T11:07:32;2.75;;;2.22;;
63342;SDS011;49465;57.664;39.686;2022-11-09T11:15:40;2.83;;;2.40;;
63342;SDS011;49465;57.664;39.686;2022-11-09T11:18:20;4.40;;;2.40;;
63342;SDS011;49465;57.664;39.686;2022-11-09T11:21:24;5.13;;;3.20;;
63342;SDS011;49465;57.664;39.686;2022-11-09T11:23:52;3.42;;;2.10;;
63342;SDS011;49465;57.664;39.686;2022-11-09T11:32:17;3.22;;;2.40;;
63342;SDS011;49465;57.664;39.686;2022-11-09T11:34:47;3.67;;;2.22;;
63342;SDS011;49465;57.664;39.686;2022-11-09T11:37:39;5.13;;;2.17;;
63342;SDS011;49465;57.664;39.686;2022-11-09T11:40:34;3.67;;;2.30;;
63342;SDS011;49465;57.664;39.686;2022-11-09T11:46:30;2.78;;;2.35;;
63342;SDS011;49465;57.664;39.686;2022-11-09T11:52:26;3.75;;;2.40;;
63342;SDS011;49465;57.664;39.686;2022-11-09T12:00:21;3.72;;;2.20;;
63342;SDS011;49465;57.664;39.686;2022-11-09T12:02:58;3.85;;;2.17;;
63342;SDS011;49465;57.664;39.686;2022-11-09T12:22:58;4.00;;;2.67;;
63342;SDS011;49465;57.664;39.686;2022-11-09T12:25:49;4.20;;;2.95;;
63342;SDS011;49465;57.664;39.686;2022-11-09T12:34:05;4.18;;;2.97;;
63342;SDS011;49465;57.664;39.686;2022-11-09T12:36:37;4.05;;;3.00;;
63342;SDS011;49465;57.664;39.686;2022-11-09T12:39:37;3.33;;;2.53;;
63342;SDS011;49465;57.664;39.686;2022-11-09T12:42:21;4.10;;;2.50;;
63342;SDS011;49465;57.664;39.686;2022-11-09T12:47:59;3.45;;;2.70;;
63342;SDS011;49465;57.664;39.686;2022-11-09T12:50:33;3.40;;;2.92;;
63342;SDS011;49465;57.664;39.686;2022-11-09T12:53:03;5.80;;;4.20;;
63342;SDS011;49465;57.664;39.686;2022-11-09T12:55:43;5.75;;;2.83;;
63342;SDS011;49465;57.664;39.686;2022-11-09T12:58:24;3.47;;;2.80;;
63342;SDS011;49465;57.664;39.686;2022-11-09T13:00:57;3.22;;;2.80;;
63342;SDS011;49465;57.664;39.686;2022-11-09T13:03:32;3.53;;;2.72;;
63342;SDS011;49465;57.664;39.686;2022-11-09T13:06:08;3.00;;;2.70;;
63342;SDS011;49465;57.664;39.686;2022-11-09T13:08:54;3.30;;;2.65;;
63342;SDS011;49465;57.664;39.686;2022-11-09T13:11:56;2.90;;;2.60;;
63342;SDS011;49465;57.664;39.686;2022-11-09T13:14:25;3.80;;;3.33;;
63342;SDS011;49465;57.664;39.686;2022-11-09T13:19:58;4.90;;;4.00;;
63342;SDS011;49465;57.664;39.686;2022-11-09T13:25:04;4.60;;;3.67;;
63342;SDS011;49465;57.664;39.686;2022-11-09T13:30:59;8.68;;;6.25;;
63342;SDS011;49465;57.664;39.686;2022-11-09T13:33:32;7.40;;;5.90;;
63342;SDS011;49465;57.664;39.686;2022-11-09T13:38:38;7.40;;;5.03;;
63342;SDS011;49465;57.664;39.686;2022-11-09T13:44:06;6.60;;;5.13;;
63342;SDS011;49465;57.664;39.686;2022-11-09T13:46:55;6.57;;;5.20;;
63342;SDS011;49465;57.664;39.686;2022-11-09T13:52:35;6.97;;;5.07;;
63342;SDS011;49465;57.664;39.686;2022-11-09T13:55:17;5.63;;;4.55;;
63342;SDS011;49465;57.664;39.686;2022-11-09T13:58:10;5.68;;;4.63;;
63342;SDS011;49465;57.664;39.686;2022-11-09T14:00:44;6.18;;;5.05;;
63342;SDS011;49465;57.664;39.686;2022-11-09T14:03:20;7.20;;;5.97;;
63342;SDS011;49465;57.664;39.686;2022-11-09T14:05:55;7.82;;;4.75;;
63342;SDS011;49465;57.664;39.686;2022-11-09T14:08:28;5.30;;;4.15;;
63342;SDS011;49465;57.664;39.686;2022-11-09T14:13:55;7.13;;;5.60;;
63342;SDS011;49465;57.664;39.686;2022-11-09T14:16:46;5.65;;;5.00;;
63342;SDS011;49465;57.664;39.686;2022-11-09T14:22:15;9.32;;;7.35;;
63342;SDS011;49465;57.664;39.686;2022-11-09T14:24:48;14.13;;;8.85;;
63342;SDS011;49465;57.664;39.686;2022-11-09T14:27:18;7.00;;;5.57;;
63342;SDS011;49465;57.664;39.686;2022-11-09T14:29:55;6.85;;;5.32;;
63342;SDS011;49465;57.664;39.686;2022-11-09T14:32:31;8.43;;;6.00;;
63342;SDS011;49465;57.664;39.686;2022-11-09T14:38:14;6.80;;;5.40;;
63342;SDS011;49465;57.664;39.686;2022-11-09T14:40:48;6.78;;;5.20;;
63342;SDS011;49465;57.664;39.686;2022-11-09T14:46:13;7.00;;;5.18;;
63342;SDS011;49465;57.664;39.686;2022-11-09T14:48:52;5.75;;;5.13;;
63342;SDS011;49465;57.664;39.686;2022-11-09T14:51:29;6.00;;;5.10;;
63342;SDS011;49465;57.664;39.686;2022-11-09T14:53:59;6.95;;;5.32;;
63342;SDS011;49465;57.664;39.686;2022-11-09T14:56:26;6.57;;;5.63;;
63342;SDS011;49465;57.664;39.686;2022-11-09T14:58:57;8.60;;;5.45;;
63342;SDS011;49465;57.664;39.686;2022-11-09T15:01:26;7.03;;;5.15;;
63342;SDS011;49465;57.664;39.686;2022-11-09T15:06:35;6.03;;;5.25;;
63342;SDS011;49465;57.664;39.686;2022-11-09T15:09:14;8.50;;;5.97;;
63342;SDS011;49465;57.664;39.686;2022-11-09T15:11:46;6.00;;;5.38;;
63342;SDS011;49465;57.664;39.686;2022-11-09T15:16:43;6.40;;;5.10;;
63342;SDS011;49465;57.664;39.686;2022-11-09T15:19:34;7.00;;;5.05;;
63342;SDS011;49465;57.664;39.686;2022-11-09T15:25:22;6.85;;;4.72;;
63342;SDS011;49465;57.664;39.686;2022-11-09T15:33:22;6.05;;;4.40;;
63342;SDS011;49465;57.664;39.686;2022-11-09T15:38:38;7.28;;;5.05;;
63342;SDS011;49465;57.664;39.686;2022-11-09T15:41:09;5.70;;;4.28;;
63342;SDS011;49465;57.664;39.686;2022-11-09T15:43:42;5.47;;;4.65;;
63342;SDS011;49465;57.664;39.686;2022-11-09T15:46:10;7.13;;;4.43;;
63342;SDS011;49465;57.664;39.686;2022-11-09T15:48:40;5.72;;;4.80;;
63342;SDS011;49465;57.664;39.686;2022-11-09T15:51:17;5.40;;;4.10;;
63342;SDS011;49465;57.664;39.686;2022-11-09T15:53:45;5.28;;;3.80;;
63342;SDS011;49465;57.664;39.686;2022-11-09T15:56:16;6.05;;;4.47;;
63342;SDS011;49465;57.664;39.686;2022-11-09T15:58:50;6.00;;;3.97;;
63342;SDS011;49465;57.664;39.686;2022-11-09T16:01:24;4.93;;;4.43;;
63342;SDS011;49465;57.664;39.686;2022-11-09T16:03:54;4.63;;;3.85;;
63342;SDS011;49465;57.664;39.686;2022-11-09T16:06:20;4.38;;;3.88;;
63342;SDS011;49465;57.664;39.686;2022-11-09T16:08:55;3.90;;;3.50;;
63342;SDS011;49465;57.664;39.686;2022-11-09T16:11:21;5.97;;;3.90;;
63342;SDS011;49465;57.664;39.686;2022-11-09T16:13:48;4.57;;;4.10;;
63342;SDS011;49465;57.664;39.686;2022-11-09T16:16:14;5.47;;;3.50;;
63342;SDS011;49465;57.664;39.686;2022-11-09T16:18:41;4.35;;;3.90;;
63342;SDS011;49465;57.664;39.686;2022-11-09T16:21:11;4.07;;;3.30;;
63342;SDS011;49465;57.664;39.686;2022-11-09T16:23:42;4.78;;;4.00;;
63342;SDS011;49465;57.664;39.686;2022-11-09T16:26:10;4.13;;;3.05;;
63342;SDS011;49465;57.664;39.686;2022-11-09T16:28:41;3.83;;;3.30;;
63342;SDS011;49465;57.664;39.686;2022-11-09T16:31:07;4.85;;;3.38;;
63342;SDS011;49465;57.664;39.686;2022-11-09T16:33:37;5.38;;;3.30;;
63342;SDS011;49465;57.664;39.686;2022-11-09T16:36:05;4.43;;;3.67;;
63342;SDS011;49465;57.664;39.686;2022-11-09T16:38:42;4.10;;;3.20;;
63342;SDS011;49465;57.664;39.686;2022-11-09T16:41:19;4.07;;;3.42;;
63342;SDS011;49465;57.664;39.686;2022-11-09T16:43:46;3.38;;;3.08;;
63342;SDS011;49465;57.664;39.686;2022-11-09T16:46:17;5.25;;;4.10;;
63342;SDS011;49465;57.664;39.686;2022-11-09T16:48:51;4.20;;;3.20;;
63342;SDS011;49465;57.664;39.686;2022-11-09T16:51:24;4.30;;;3.22;;
63342;SDS011;49465;57.664;39.686;2022-11-09T16:53:53;4.28;;;3.63;;
63342;SDS011;49465;57.664;39.686;2022-11-09T16:56:22;3.90;;;3.38;;
63342;SDS011;49465;57.664;39.686;2022-11-09T16:58:52;4.82;;;3.55;;
63342;SDS011;49465;57.664;39.686;2022-11-09T17:01:18;4.10;;;3.30;;
63342;SDS011;49465;57.664;39.686;2022-11-09T17:03:46;4.20;;;3.47;;
63342;SDS011;49465;57.664;39.686;2022-11-09T17:06:21;3.83;;;3.17;;
63342;SDS011;49465;57.664;39.686;2022-11-09T17:08:47;3.65;;;3.20;;
63342;SDS011;49465;57.664;39.686;2022-11-09T17:11:14;3.78;;;2.90;;
63342;SDS011;49465;57.664;39.686;2022-11-09T17:13:41;3.08;;;2.70;;